sensor_id;sensor_type;location;lat;lon;timestamp;P1;durP1;ratioP1;P2;durP2;ratioP2
41943;SDS011;27636;52.610;13.244;2023-05-21T00:02:40;21.02;;;12.43;;
41943;SDS011;27636;52.610;13.244;2023-05-21T00:07:44;22.80;;;11.60;;
41943;SDS011;27636;52.610;13.244;2023-05-21T00:12:48;25.38;;;12.40;;
41943;SDS011;27636;52.610;13.244;2023-05-21T00:17:53;23.15;;;12.25;;
41943;SDS011;27636;52.610;13.244;2023-05-21T00:22:57;21.80;;;11.95;;
41943;SDS011;27636;52.610;13.244;2023-05-21T00:28:01;26.48;;;12.02;;
41943;SDS011;27636;52.610;13.244;2023-05-21T00:33:06;23.77;;;12.35;;
41943;SDS011;27636;52.610;13.244;2023-05-21T00:38:12;25.88;;;12.77;;
41943;SDS011;27636;52.610;13.244;2023-05-21T00:43:16;31.13;;;13.68;;
41943;SDS011;27636;52.610;13.244;2023-05-21T00:48:21;25.10;;;13.43;;
41943;SDS011;27636;52.610;13.244;2023-05-21T00:53:25;21.92;;;12.07;;
41943;SDS011;27636;52.610;13.244;2023-05-21T00:58:29;23.30;;;12.27;;
41943;SDS011;27636;52.610;13.244;2023-05-21T01:03:36;24.42;;;12.70;;
41943;SDS011;27636;52.610;13.244;2023-05-21T01:08:41;26.88;;;12.60;;
41943;SDS011;27636;52.610;13.244;2023-05-21T01:13:45;21.92;;;11.73;;
41943;SDS011;27636;52.610;13.244;2023-05-21T01:18:51;23.52;;;11.43;;
41943;SDS011;27636;52.610;13.244;2023-05-21T01:23:57;24.52;;;12.85;;
41943;SDS011;27636;52.610;13.244;2023-05-21T01:29:01;21.15;;;11.40;;
41943;SDS011;27636;52.610;13.244;2023-05-21T01:34:04;23.70;;;12.30;;
41943;SDS011;27636;52.610;13.244;2023-05-21T01:39:14;21.55;;;11.13;;
41943;SDS011;27636;52.610;13.244;2023-05-21T01:44:22;24.70;;;12.02;;
41943;SDS011;27636;52.610;13.244;2023-05-21T01:49:27;22.58;;;12.30;;
41943;SDS011;27636;52.610;13.244;2023-05-21T01:54:33;23.25;;;12.43;;
41943;SDS011;27636;52.610;13.244;2023-05-21T01:59:37;22.42;;;12.00;;
41943;SDS011;27636;52.610;13.244;2023-05-21T02:04:41;22.70;;;11.45;;
41943;SDS011;27636;52.610;13.244;2023-05-21T02:09:47;25.08;;;12.13;;
41943;SDS011;27636;52.610;13.244;2023-05-21T02:14:50;25.27;;;12.95;;
41943;SDS011;27636;52.610;13.244;2023-05-21T02:19:54;23.17;;;12.27;;
41943;SDS011;27636;52.610;13.244;2023-05-21T02:24:58;28.25;;;12.90;;
41943;SDS011;27636;52.610;13.244;2023-05-21T02:30:03;26.25;;;12.93;;
41943;SDS011;27636;52.610;13.244;2023-05-21T02:35:08;27.83;;;13.77;;
41943;SDS011;27636;52.610;13.244;2023-05-21T02:40:14;31.15;;;13.73;;
41943;SDS011;27636;52.610;13.244;2023-05-21T02:45:18;30.35;;;13.40;;
41943;SDS011;27636;52.610;13.244;2023-05-21T02:50:22;26.13;;;14.40;;
41943;SDS011;27636;52.610;13.244;2023-05-21T02:55:32;28.38;;;13.40;;
41943;SDS011;27636;52.610;13.244;2023-05-21T03:00:36;27.02;;;13.88;;
41943;SDS011;27636;52.610;13.244;2023-05-21T03:05:40;32.72;;;15.30;;
41943;SDS011;27636;52.610;13.244;2023-05-21T03:10:45;28.88;;;14.48;;
41943;SDS011;27636;52.610;13.244;2023-05-21T03:15:48;32.00;;;13.98;;
41943;SDS011;27636;52.610;13.244;2023-05-21T03:20:57;30.27;;;16.15;;
41943;SDS011;27636;52.610;13.244;2023-05-21T03:26:02;27.10;;;13.25;;
41943;SDS011;27636;52.610;13.244;2023-05-21T03:31:07;29.40;;;15.15;;
41943;SDS011;27636;52.610;13.244;2023-05-21T03:36:25;33.20;;;15.48;;
41943;SDS011;27636;52.610;13.244;2023-05-21T03:41:32;31.40;;;17.10;;
41943;SDS011;27636;52.610;13.244;2023-05-21T03:46:42;30.83;;;15.30;;
41943;SDS011;27636;52.610;13.244;2023-05-21T03:51:59;36.13;;;16.73;;
41943;SDS011;27636;52.610;13.244;2023-05-21T03:57:05;36.70;;;16.52;;
41943;SDS011;27636;52.610;13.244;2023-05-21T04:07:12;30.20;;;15.20;;
41943;SDS011;27636;52.610;13.244;2023-05-21T04:12:18;31.83;;;16.77;;
41943;SDS011;27636;52.610;13.244;2023-05-21T04:17:22;36.63;;;16.88;;
41943;SDS011;27636;52.610;13.244;2023-05-21T04:22:29;34.05;;;16.95;;
41943;SDS011;27636;52.610;13.244;2023-05-21T04:27:34;36.45;;;17.77;;
41943;SDS011;27636;52.610;13.244;2023-05-21T04:37:42;31.57;;;16.47;;
41943;SDS011;27636;52.610;13.244;2023-05-21T04:42:50;39.00;;;19.60;;
41943;SDS011;27636;52.610;13.244;2023-05-21T04:47:56;38.75;;;20.60;;
41943;SDS011;27636;52.610;13.244;2023-05-21T04:53:03;36.40;;;20.65;;
41943;SDS011;27636;52.610;13.244;2023-05-21T04:58:09;27.67;;;15.40;;
41943;SDS011;27636;52.610;13.244;2023-05-21T05:03:15;25.58;;;14.57;;
41943;SDS011;27636;52.610;13.244;2023-05-21T05:08:19;21.83;;;13.75;;
41943;SDS011;27636;52.610;13.244;2023-05-21T05:13:25;18.58;;;12.23;;
41943;SDS011;27636;52.610;13.244;2023-05-21T05:18:29;23.40;;;12.60;;
41943;SDS011;27636;52.610;13.244;2023-05-21T05:23:33;18.93;;;11.97;;
41943;SDS011;27636;52.610;13.244;2023-05-21T05:28:38;24.40;;;12.70;;
41943;SDS011;27636;52.610;13.244;2023-05-21T05:38:46;20.83;;;11.13;;
41943;SDS011;27636;52.610;13.244;2023-05-21T05:43:53;20.83;;;11.65;;
41943;SDS011;27636;52.610;13.244;2023-05-21T05:49:00;20.73;;;12.25;;
41943;SDS011;27636;52.610;13.244;2023-05-21T05:54:03;21.17;;;11.25;;
41943;SDS011;27636;52.610;13.244;2023-05-21T05:59:09;24.70;;;11.87;;
41943;SDS011;27636;52.610;13.244;2023-05-21T06:04:14;18.90;;;11.65;;
41943;SDS011;27636;52.610;13.244;2023-05-21T06:09:17;19.08;;;12.38;;
41943;SDS011;27636;52.610;13.244;2023-05-21T06:14:23;21.00;;;12.05;;
41943;SDS011;27636;52.610;13.244;2023-05-21T06:19:27;21.42;;;12.32;;
41943;SDS011;27636;52.610;13.244;2023-05-21T06:24:31;20.15;;;11.60;;
41943;SDS011;27636;52.610;13.244;2023-05-21T06:29:36;17.93;;;11.50;;
41943;SDS011;27636;52.610;13.244;2023-05-21T06:39:43;19.55;;;11.50;;
41943;SDS011;27636;52.610;13.244;2023-05-21T06:44:48;19.73;;;12.45;;
41943;SDS011;27636;52.610;13.244;2023-05-21T06:49:58;18.30;;;11.43;;
41943;SDS011;27636;52.610;13.244;2023-05-21T06:55:02;24.77;;;13.23;;
41943;SDS011;27636;52.610;13.244;2023-05-21T07:00:24;21.88;;;11.95;;
41943;SDS011;27636;52.610;13.244;2023-05-21T07:05:28;19.83;;;11.38;;
41943;SDS011;27636;52.610;13.244;2023-05-21T07:10:32;22.13;;;11.32;;
41943;SDS011;27636;52.610;13.244;2023-05-21T07:15:37;18.30;;;10.73;;
41943;SDS011;27636;52.610;13.244;2023-05-21T07:20:41;24.58;;;11.52;;
41943;SDS011;27636;52.610;13.244;2023-05-21T07:25:49;18.88;;;11.75;;
41943;SDS011;27636;52.610;13.244;2023-05-21T07:30:55;19.80;;;11.68;;
41943;SDS011;27636;52.610;13.244;2023-05-21T07:36:06;20.95;;;11.80;;
41943;SDS011;27636;52.610;13.244;2023-05-21T07:41:10;16.90;;;9.88;;
41943;SDS011;27636;52.610;13.244;2023-05-21T07:51:22;17.42;;;9.88;;
41943;SDS011;27636;52.610;13.244;2023-05-21T07:56:26;16.60;;;9.20;;
41943;SDS011;27636;52.610;13.244;2023-05-21T08:01:33;12.95;;;8.70;;
41943;SDS011;27636;52.610;13.244;2023-05-21T08:06:39;15.18;;;9.55;;
41943;SDS011;27636;52.610;13.244;2023-05-21T08:11:42;13.98;;;9.02;;
41943;SDS011;27636;52.610;13.244;2023-05-21T08:16:48;14.10;;;8.35;;
41943;SDS011;27636;52.610;13.244;2023-05-21T08:21:52;13.43;;;7.95;;
41943;SDS011;27636;52.610;13.244;2023-05-21T08:26:57;15.93;;;8.77;;
41943;SDS011;27636;52.610;13.244;2023-05-21T08:32:02;17.77;;;8.17;;
41943;SDS011;27636;52.610;13.244;2023-05-21T08:37:06;14.25;;;9.02;;
41943;SDS011;27636;52.610;13.244;2023-05-21T08:42:35;15.02;;;8.20;;
41943;SDS011;27636;52.610;13.244;2023-05-21T08:47:45;14.23;;;7.85;;
41943;SDS011;27636;52.610;13.244;2023-05-21T08:52:50;11.63;;;8.48;;
41943;SDS011;27636;52.610;13.244;2023-05-21T08:57:55;11.18;;;7.10;;
41943;SDS011;27636;52.610;13.244;2023-05-21T09:03:01;12.95;;;7.50;;
41943;SDS011;27636;52.610;13.244;2023-05-21T09:08:12;12.30;;;7.57;;
41943;SDS011;27636;52.610;13.244;2023-05-21T09:13:42;12.77;;;7.50;;
41943;SDS011;27636;52.610;13.244;2023-05-21T09:18:55;12.88;;;7.03;;
41943;SDS011;27636;52.610;13.244;2023-05-21T09:30:04;11.70;;;6.43;;
41943;SDS011;27636;52.610;13.244;2023-05-21T09:35:13;12.82;;;6.45;;
41943;SDS011;27636;52.610;13.244;2023-05-21T09:40:18;13.55;;;6.95;;
41943;SDS011;27636;52.610;13.244;2023-05-21T09:45:23;14.75;;;7.43;;
41943;SDS011;27636;52.610;13.244;2023-05-21T09:50:34;18.80;;;6.78;;
41943;SDS011;27636;52.610;13.244;2023-05-21T09:55:38;12.20;;;6.68;;
41943;SDS011;27636;52.610;13.244;2023-05-21T10:00:43;10.65;;;6.82;;
41943;SDS011;27636;52.610;13.244;2023-05-21T10:05:49;9.77;;;6.00;;
41943;SDS011;27636;52.610;13.244;2023-05-21T10:10:55;11.98;;;6.25;;
41943;SDS011;27636;52.610;13.244;2023-05-21T10:16:00;10.75;;;5.85;;
41943;SDS011;27636;52.610;13.244;2023-05-21T10:21:06;9.85;;;5.68;;
41943;SDS011;27636;52.610;13.244;2023-05-21T10:26:10;13.35;;;6.57;;
41943;SDS011;27636;52.610;13.244;2023-05-21T10:31:14;9.02;;;5.68;;
41943;SDS011;27636;52.610;13.244;2023-05-21T10:36:19;12.13;;;6.35;;
41943;SDS011;27636;52.610;13.244;2023-05-21T10:41:26;10.25;;;5.60;;
41943;SDS011;27636;52.610;13.244;2023-05-21T10:46:42;15.68;;;6.03;;
41943;SDS011;27636;52.610;13.244;2023-05-21T10:52:08;15.65;;;7.25;;
41943;SDS011;27636;52.610;13.244;2023-05-21T10:57:32;9.88;;;5.93;;
41943;SDS011;27636;52.610;13.244;2023-05-21T11:02:55;8.77;;;5.80;;
41943;SDS011;27636;52.610;13.244;2023-05-21T11:08:02;9.10;;;5.72;;
41943;SDS011;27636;52.610;13.244;2023-05-21T11:13:06;13.43;;;5.93;;
41943;SDS011;27636;52.610;13.244;2023-05-21T11:18:10;14.25;;;6.68;;
41943;SDS011;27636;52.610;13.244;2023-05-21T11:23:18;10.63;;;5.35;;
41943;SDS011;27636;52.610;13.244;2023-05-21T11:28:31;10.93;;;5.38;;
41943;SDS011;27636;52.610;13.244;2023-05-21T11:33:34;9.18;;;6.10;;
41943;SDS011;27636;52.610;13.244;2023-05-21T11:38:39;13.10;;;6.43;;
41943;SDS011;27636;52.610;13.244;2023-05-21T11:43:43;8.57;;;5.20;;
41943;SDS011;27636;52.610;13.244;2023-05-21T11:48:46;8.97;;;5.37;;
41943;SDS011;27636;52.610;13.244;2023-05-21T11:53:52;10.50;;;6.05;;
41943;SDS011;27636;52.610;13.244;2023-05-21T11:59:00;8.52;;;5.72;;
41943;SDS011;27636;52.610;13.244;2023-05-21T12:04:05;10.07;;;5.72;;
41943;SDS011;27636;52.610;13.244;2023-05-21T12:09:10;9.88;;;5.55;;
41943;SDS011;27636;52.610;13.244;2023-05-21T12:14:14;8.95;;;5.57;;
41943;SDS011;27636;52.610;13.244;2023-05-21T12:19:17;16.27;;;4.83;;
41943;SDS011;27636;52.610;13.244;2023-05-21T12:24:22;9.70;;;4.70;;
41943;SDS011;27636;52.610;13.244;2023-05-21T12:29:26;8.93;;;4.57;;
41943;SDS011;27636;52.610;13.244;2023-05-21T12:34:36;9.95;;;5.00;;
41943;SDS011;27636;52.610;13.244;2023-05-21T12:39:43;6.53;;;3.78;;
41943;SDS011;27636;52.610;13.244;2023-05-21T12:44:47;9.90;;;4.78;;
41943;SDS011;27636;52.610;13.244;2023-05-21T12:49:52;9.43;;;4.63;;
41943;SDS011;27636;52.610;13.244;2023-05-21T12:54:59;10.00;;;4.60;;
41943;SDS011;27636;52.610;13.244;2023-05-21T13:00:03;13.13;;;4.93;;
41943;SDS011;27636;52.610;13.244;2023-05-21T13:05:14;10.80;;;4.60;;
41943;SDS011;27636;52.610;13.244;2023-05-21T13:10:23;9.57;;;4.75;;
41943;SDS011;27636;52.610;13.244;2023-05-21T13:15:27;7.85;;;4.57;;
41943;SDS011;27636;52.610;13.244;2023-05-21T13:25:35;9.10;;;4.28;;
41943;SDS011;27636;52.610;13.244;2023-05-21T13:30:38;7.85;;;5.03;;
41943;SDS011;27636;52.610;13.244;2023-05-21T13:40:49;10.68;;;4.60;;
41943;SDS011;27636;52.610;13.244;2023-05-21T13:45:53;10.75;;;4.32;;
41943;SDS011;27636;52.610;13.244;2023-05-21T13:50:56;10.18;;;5.32;;
41943;SDS011;27636;52.610;13.244;2023-05-21T13:56:01;8.97;;;4.50;;
41943;SDS011;27636;52.610;13.244;2023-05-21T14:01:06;10.43;;;5.03;;
41943;SDS011;27636;52.610;13.244;2023-05-21T14:06:10;8.95;;;5.05;;
41943;SDS011;27636;52.610;13.244;2023-05-21T14:11:15;8.05;;;4.75;;
41943;SDS011;27636;52.610;13.244;2023-05-21T14:16:19;12.30;;;5.05;;
41943;SDS011;27636;52.610;13.244;2023-05-21T14:21:25;11.75;;;5.10;;
41943;SDS011;27636;52.610;13.244;2023-05-21T14:26:30;10.13;;;5.00;;
41943;SDS011;27636;52.610;13.244;2023-05-21T14:31:34;10.15;;;4.80;;
41943;SDS011;27636;52.610;13.244;2023-05-21T14:36:37;11.60;;;5.90;;
41943;SDS011;27636;52.610;13.244;2023-05-21T14:41:42;8.60;;;4.05;;
41943;SDS011;27636;52.610;13.244;2023-05-21T14:46:45;7.60;;;4.45;;
41943;SDS011;27636;52.610;13.244;2023-05-21T14:56:54;8.07;;;4.20;;
41943;SDS011;27636;52.610;13.244;2023-05-21T15:01:57;7.50;;;4.25;;
41943;SDS011;27636;52.610;13.244;2023-05-21T15:07:01;8.75;;;4.30;;
41943;SDS011;27636;52.610;13.244;2023-05-21T15:12:06;9.47;;;4.87;;
41943;SDS011;27636;52.610;13.244;2023-05-21T15:17:09;8.23;;;3.80;;
41943;SDS011;27636;52.610;13.244;2023-05-21T15:22:13;6.83;;;4.07;;
41943;SDS011;27636;52.610;13.244;2023-05-21T15:27:18;7.57;;;4.13;;
41943;SDS011;27636;52.610;13.244;2023-05-21T15:32:21;14.35;;;5.03;;
41943;SDS011;27636;52.610;13.244;2023-05-21T15:37:25;10.13;;;5.20;;
41943;SDS011;27636;52.610;13.244;2023-05-21T15:42:30;9.67;;;4.30;;
41943;SDS011;27636;52.610;13.244;2023-05-21T15:47:33;6.68;;;3.95;;
41943;SDS011;27636;52.610;13.244;2023-05-21T15:52:37;8.93;;;3.95;;
41943;SDS011;27636;52.610;13.244;2023-05-21T15:57:42;6.70;;;4.00;;
41943;SDS011;27636;52.610;13.244;2023-05-21T16:02:46;7.70;;;4.13;;
41943;SDS011;27636;52.610;13.244;2023-05-21T16:07:50;9.17;;;4.10;;
41943;SDS011;27636;52.610;13.244;2023-05-21T16:12:54;14.70;;;4.03;;
41943;SDS011;27636;52.610;13.244;2023-05-21T16:17:58;8.85;;;4.07;;
41943;SDS011;27636;52.610;13.244;2023-05-21T16:23:02;7.80;;;3.67;;
41943;SDS011;27636;52.610;13.244;2023-05-21T16:28:09;9.30;;;4.00;;
41943;SDS011;27636;52.610;13.244;2023-05-21T16:33:14;9.77;;;4.20;;
41943;SDS011;27636;52.610;13.244;2023-05-21T16:38:18;8.00;;;3.72;;
41943;SDS011;27636;52.610;13.244;2023-05-21T16:43:23;9.00;;;4.00;;
41943;SDS011;27636;52.610;13.244;2023-05-21T16:48:26;6.60;;;3.50;;
41943;SDS011;27636;52.610;13.244;2023-05-21T16:58:35;7.00;;;3.50;;
41943;SDS011;27636;52.610;13.244;2023-05-21T17:03:39;6.55;;;3.45;;
41943;SDS011;27636;52.610;13.244;2023-05-21T17:08:45;8.00;;;3.58;;
41943;SDS011;27636;52.610;13.244;2023-05-21T17:18:54;9.82;;;3.90;;
41943;SDS011;27636;52.610;13.244;2023-05-21T17:23:58;10.45;;;4.00;;
41943;SDS011;27636;52.610;13.244;2023-05-21T17:29:03;7.60;;;3.47;;
41943;SDS011;27636;52.610;13.244;2023-05-21T17:34:06;9.10;;;3.53;;
41943;SDS011;27636;52.610;13.244;2023-05-21T17:39:10;8.77;;;3.53;;
41943;SDS011;27636;52.610;13.244;2023-05-21T17:44:15;7.70;;;3.90;;
41943;SDS011;27636;52.610;13.244;2023-05-21T17:49:19;8.75;;;3.85;;
41943;SDS011;27636;52.610;13.244;2023-05-21T17:54:23;9.23;;;3.53;;
41943;SDS011;27636;52.610;13.244;2023-05-21T17:59:28;8.60;;;3.30;;
41943;SDS011;27636;52.610;13.244;2023-05-21T18:04:32;6.88;;;3.67;;
41943;SDS011;27636;52.610;13.244;2023-05-21T18:09:36;8.98;;;3.42;;
41943;SDS011;27636;52.610;13.244;2023-05-21T18:14:40;6.00;;;3.30;;
41943;SDS011;27636;52.610;13.244;2023-05-21T18:19:44;9.35;;;3.15;;
41943;SDS011;27636;52.610;13.244;2023-05-21T18:24:47;9.65;;;3.70;;
41943;SDS011;27636;52.610;13.244;2023-05-21T18:29:52;7.88;;;3.70;;
41943;SDS011;27636;52.610;13.244;2023-05-21T18:34:56;7.00;;;3.50;;
41943;SDS011;27636;52.610;13.244;2023-05-21T18:40:00;8.73;;;3.85;;
41943;SDS011;27636;52.610;13.244;2023-05-21T18:45:07;8.43;;;3.80;;
41943;SDS011;27636;52.610;13.244;2023-05-21T18:50:12;6.80;;;4.03;;
41943;SDS011;27636;52.610;13.244;2023-05-21T18:55:17;8.82;;;4.20;;
41943;SDS011;27636;52.610;13.244;2023-05-21T19:00:23;9.43;;;4.15;;
41943;SDS011;27636;52.610;13.244;2023-05-21T19:05:27;8.57;;;3.88;;
41943;SDS011;27636;52.610;13.244;2023-05-21T19:10:31;8.23;;;4.00;;
41943;SDS011;27636;52.610;13.244;2023-05-21T19:15:36;9.18;;;3.67;;
41943;SDS011;27636;52.610;13.244;2023-05-21T19:25:42;7.68;;;3.78;;
41943;SDS011;27636;52.610;13.244;2023-05-21T19:30:47;7.80;;;3.88;;
41943;SDS011;27636;52.610;13.244;2023-05-21T19:35:51;15.65;;;4.57;;
41943;SDS011;27636;52.610;13.244;2023-05-21T19:40:54;7.95;;;3.53;;
41943;SDS011;27636;52.610;13.244;2023-05-21T19:45:59;11.60;;;4.68;;
41943;SDS011;27636;52.610;13.244;2023-05-21T19:56:06;8.30;;;3.90;;
41943;SDS011;27636;52.610;13.244;2023-05-21T20:01:12;8.83;;;4.60;;
41943;SDS011;27636;52.610;13.244;2023-05-21T20:06:16;7.32;;;3.65;;
41943;SDS011;27636;52.610;13.244;2023-05-21T20:11:22;8.48;;;3.80;;
41943;SDS011;27636;52.610;13.244;2023-05-21T20:16:27;7.88;;;3.92;;
41943;SDS011;27636;52.610;13.244;2023-05-21T20:21:31;8.40;;;3.60;;
41943;SDS011;27636;52.610;13.244;2023-05-21T20:26:35;6.10;;;3.33;;
41943;SDS011;27636;52.610;13.244;2023-05-21T20:31:40;6.37;;;3.47;;
41943;SDS011;27636;52.610;13.244;2023-05-21T20:36:44;8.63;;;4.25;;
41943;SDS011;27636;52.610;13.244;2023-05-21T20:41:48;7.90;;;4.07;;
41943;SDS011;27636;52.610;13.244;2023-05-21T20:46:53;8.05;;;4.05;;
41943;SDS011;27636;52.610;13.244;2023-05-21T20:51:57;7.57;;;4.20;;
41943;SDS011;27636;52.610;13.244;2023-05-21T20:57:01;9.95;;;4.10;;
41943;SDS011;27636;52.610;13.244;2023-05-21T21:02:09;7.15;;;3.53;;
41943;SDS011;27636;52.610;13.244;2023-05-21T21:07:16;7.35;;;4.15;;
41943;SDS011;27636;52.610;13.244;2023-05-21T21:12:20;7.43;;;4.00;;
41943;SDS011;27636;52.610;13.244;2023-05-21T21:17:30;8.27;;;3.78;;
41943;SDS011;27636;52.610;13.244;2023-05-21T21:22:33;8.88;;;4.65;;
41943;SDS011;27636;52.610;13.244;2023-05-21T21:27:37;8.23;;;4.13;;
41943;SDS011;27636;52.610;13.244;2023-05-21T21:32:42;6.28;;;3.58;;
41943;SDS011;27636;52.610;13.244;2023-05-21T21:37:45;10.48;;;4.07;;
41943;SDS011;27636;52.610;13.244;2023-05-21T21:42:49;8.90;;;3.97;;
41943;SDS011;27636;52.610;13.244;2023-05-21T21:47:53;7.55;;;4.07;;
41943;SDS011;27636;52.610;13.244;2023-05-21T21:52:57;9.20;;;3.97;;
41943;SDS011;27636;52.610;13.244;2023-05-21T21:58:01;7.63;;;4.35;;
41943;SDS011;27636;52.610;13.244;2023-05-21T22:03:06;6.78;;;3.78;;
41943;SDS011;27636;52.610;13.244;2023-05-21T22:08:10;8.95;;;3.63;;
41943;SDS011;27636;52.610;13.244;2023-05-21T22:13:13;8.70;;;3.88;;
41943;SDS011;27636;52.610;13.244;2023-05-21T22:18:18;10.77;;;3.78;;
41943;SDS011;27636;52.610;13.244;2023-05-21T22:23:41;8.53;;;3.20;;
41943;SDS011;27636;52.610;13.244;2023-05-21T22:28:45;7.50;;;3.75;;
41943;SDS011;27636;52.610;13.244;2023-05-21T22:33:49;9.88;;;3.83;;
41943;SDS011;27636;52.610;13.244;2023-05-21T22:38:53;8.23;;;3.33;;
41943;SDS011;27636;52.610;13.244;2023-05-21T22:43:56;9.90;;;3.60;;
41943;SDS011;27636;52.610;13.244;2023-05-21T22:49:02;7.22;;;3.67;;
41943;SDS011;27636;52.610;13.244;2023-05-21T22:59:09;7.00;;;3.13;;
41943;SDS011;27636;52.610;13.244;2023-05-21T23:04:13;7.25;;;3.63;;
41943;SDS011;27636;52.610;13.244;2023-05-21T23:14:20;6.15;;;3.10;;
41943;SDS011;27636;52.610;13.244;2023-05-21T23:19:25;6.75;;;3.00;;
41943;SDS011;27636;52.610;13.244;2023-05-21T23:24:29;10.57;;;3.38;;
41943;SDS011;27636;52.610;13.244;2023-05-21T23:29:33;6.88;;;3.33;;
41943;SDS011;27636;52.610;13.244;2023-05-21T23:34:37;7.72;;;2.90;;
41943;SDS011;27636;52.610;13.244;2023-05-21T23:39:41;7.75;;;3.97;;
41943;SDS011;27636;52.610;13.244;2023-05-21T23:44:47;9.60;;;3.38;;
41943;SDS011;27636;52.610;13.244;2023-05-21T23:49:52;7.57;;;3.15;;
41943;SDS011;27636;52.610;13.244;2023-05-21T23:54:55;6.10;;;2.80;;
41943;SDS011;27636;52.610;13.244;2023-05-21T23:59:59;5.95;;;3.00;;
